sensor_id;sensor_type;location;lat;lon;timestamp;P1;durP1;ratioP1;P2;durP2;ratioP2
48006;SDS011;33771;48.180;11.400;2022-07-10T00:01:04;5.07;;;2.55;;
48006;SDS011;33771;48.180;11.400;2022-07-10T00:03:29;6.68;;;2.53;;
48006;SDS011;33771;48.180;11.400;2022-07-10T00:05:55;5.50;;;2.60;;
48006;SDS011;33771;48.180;11.400;2022-07-10T00:08:21;5.90;;;2.58;;
48006;SDS011;33771;48.180;11.400;2022-07-10T00:10:47;5.70;;;2.75;;
48006;SDS011;33771;48.180;11.400;2022-07-10T00:13:12;4.68;;;2.63;;
48006;SDS011;33771;48.180;11.400;2022-07-10T00:15:38;5.72;;;3.00;;
48006;SDS011;33771;48.180;11.400;2022-07-10T00:18:04;5.22;;;2.70;;
48006;SDS011;33771;48.180;11.400;2022-07-10T00:20:29;5.20;;;2.90;;
48006;SDS011;33771;48.180;11.400;2022-07-10T00:22:55;5.80;;;2.92;;
48006;SDS011;33771;48.180;11.400;2022-07-10T00:25:20;4.18;;;2.83;;
48006;SDS011;33771;48.180;11.400;2022-07-10T00:27:46;7.53;;;3.42;;
48006;SDS011;33771;48.180;11.400;2022-07-10T00:30:11;7.97;;;3.65;;
48006;SDS011;33771;48.180;11.400;2022-07-10T00:32:37;6.30;;;3.60;;
48006;SDS011;33771;48.180;11.400;2022-07-10T00:35:03;5.28;;;3.30;;
48006;SDS011;33771;48.180;11.400;2022-07-10T00:37:30;5.13;;;3.47;;
48006;SDS011;33771;48.180;11.400;2022-07-10T00:39:55;7.05;;;3.83;;
48006;SDS011;33771;48.180;11.400;2022-07-10T00:42:21;6.78;;;4.20;;
48006;SDS011;33771;48.180;11.400;2022-07-10T00:44:47;6.40;;;4.25;;
48006;SDS011;33771;48.180;11.400;2022-07-10T00:47:12;8.75;;;4.75;;
48006;SDS011;33771;48.180;11.400;2022-07-10T00:49:42;7.78;;;4.47;;
48006;SDS011;33771;48.180;11.400;2022-07-10T00:52:10;5.43;;;4.10;;
48006;SDS011;33771;48.180;11.400;2022-07-10T00:54:37;6.45;;;4.68;;
48006;SDS011;33771;48.180;11.400;2022-07-10T00:57:04;6.90;;;4.32;;
48006;SDS011;33771;48.180;11.400;2022-07-10T00:59:31;6.15;;;5.10;;
48006;SDS011;33771;48.180;11.400;2022-07-10T01:01:56;7.63;;;4.43;;
48006;SDS011;33771;48.180;11.400;2022-07-10T01:04:22;7.75;;;4.88;;
48006;SDS011;33771;48.180;11.400;2022-07-10T01:06:48;5.55;;;4.07;;
48006;SDS011;33771;48.180;11.400;2022-07-10T01:09:14;7.18;;;4.70;;
48006;SDS011;33771;48.180;11.400;2022-07-10T01:11:40;7.15;;;5.05;;
48006;SDS011;33771;48.180;11.400;2022-07-10T01:14:05;6.70;;;4.80;;
48006;SDS011;33771;48.180;11.400;2022-07-10T01:16:31;10.80;;;4.78;;
48006;SDS011;33771;48.180;11.400;2022-07-10T01:18:57;7.28;;;4.47;;
48006;SDS011;33771;48.180;11.400;2022-07-10T01:21:24;5.93;;;4.15;;
48006;SDS011;33771;48.180;11.400;2022-07-10T01:23:50;5.40;;;4.75;;
48006;SDS011;33771;48.180;11.400;2022-07-10T01:26:16;7.32;;;4.78;;
48006;SDS011;33771;48.180;11.400;2022-07-10T01:28:42;5.90;;;4.53;;
48006;SDS011;33771;48.180;11.400;2022-07-10T01:31:08;6.63;;;5.30;;
48006;SDS011;33771;48.180;11.400;2022-07-10T01:33:34;6.05;;;4.97;;
48006;SDS011;33771;48.180;11.400;2022-07-10T01:35:59;5.93;;;4.82;;
48006;SDS011;33771;48.180;11.400;2022-07-10T01:38:25;10.48;;;5.85;;
48006;SDS011;33771;48.180;11.400;2022-07-10T01:40:50;7.47;;;5.13;;
48006;SDS011;33771;48.180;11.400;2022-07-10T01:43:16;6.13;;;5.32;;
48006;SDS011;33771;48.180;11.400;2022-07-10T01:45:41;7.15;;;4.88;;
48006;SDS011;33771;48.180;11.400;2022-07-10T01:48:08;6.72;;;5.25;;
48006;SDS011;33771;48.180;11.400;2022-07-10T01:50:34;5.97;;;4.88;;
48006;SDS011;33771;48.180;11.400;2022-07-10T01:52:59;5.97;;;4.97;;
48006;SDS011;33771;48.180;11.400;2022-07-10T01:55:25;6.07;;;4.93;;
48006;SDS011;33771;48.180;11.400;2022-07-10T01:57:51;5.57;;;5.07;;
48006;SDS011;33771;48.180;11.400;2022-07-10T02:00:16;7.22;;;5.22;;
48006;SDS011;33771;48.180;11.400;2022-07-10T02:02:42;9.15;;;5.43;;
48006;SDS011;33771;48.180;11.400;2022-07-10T02:05:28;6.53;;;5.13;;
48006;SDS011;33771;48.180;11.400;2022-07-10T02:07:53;8.05;;;5.65;;
48006;SDS011;33771;48.180;11.400;2022-07-10T02:10:21;6.93;;;5.35;;
48006;SDS011;33771;48.180;11.400;2022-07-10T02:12:46;6.47;;;5.65;;
48006;SDS011;33771;48.180;11.400;2022-07-10T02:15:12;8.43;;;5.60;;
48006;SDS011;33771;48.180;11.400;2022-07-10T02:17:37;5.80;;;5.30;;
48006;SDS011;33771;48.180;11.400;2022-07-10T02:20:03;7.82;;;6.40;;
48006;SDS011;33771;48.180;11.400;2022-07-10T02:22:29;7.97;;;5.80;;
48006;SDS011;33771;48.180;11.400;2022-07-10T02:24:55;7.05;;;6.25;;
48006;SDS011;33771;48.180;11.400;2022-07-10T02:27:20;6.53;;;5.93;;
48006;SDS011;33771;48.180;11.400;2022-07-10T02:29:46;7.80;;;5.55;;
48006;SDS011;33771;48.180;11.400;2022-07-10T02:32:11;8.55;;;6.97;;
48006;SDS011;33771;48.180;11.400;2022-07-10T02:34:37;7.43;;;6.05;;
48006;SDS011;33771;48.180;11.400;2022-07-10T02:37:02;8.85;;;6.60;;
48006;SDS011;33771;48.180;11.400;2022-07-10T02:39:28;6.70;;;6.03;;
48006;SDS011;33771;48.180;11.400;2022-07-10T02:41:54;10.57;;;6.53;;
48006;SDS011;33771;48.180;11.400;2022-07-10T02:44:19;8.93;;;6.78;;
48006;SDS011;33771;48.180;11.400;2022-07-10T02:46:45;9.52;;;6.32;;
48006;SDS011;33771;48.180;11.400;2022-07-10T02:49:11;7.40;;;6.63;;
48006;SDS011;33771;48.180;11.400;2022-07-10T02:51:36;8.43;;;6.65;;
48006;SDS011;33771;48.180;11.400;2022-07-10T02:54:02;8.85;;;6.28;;
48006;SDS011;33771;48.180;11.400;2022-07-10T02:56:27;7.13;;;6.18;;
48006;SDS011;33771;48.180;11.400;2022-07-10T02:58:53;7.20;;;6.47;;
48006;SDS011;33771;48.180;11.400;2022-07-10T03:01:18;7.07;;;6.43;;
48006;SDS011;33771;48.180;11.400;2022-07-10T03:03:44;8.07;;;6.78;;
48006;SDS011;33771;48.180;11.400;2022-07-10T03:06:09;7.43;;;6.15;;
48006;SDS011;33771;48.180;11.400;2022-07-10T03:08:35;11.57;;;6.32;;
48006;SDS011;33771;48.180;11.400;2022-07-10T03:11:01;7.15;;;6.45;;
48006;SDS011;33771;48.180;11.400;2022-07-10T03:13:26;9.05;;;7.05;;
48006;SDS011;33771;48.180;11.400;2022-07-10T03:15:53;7.38;;;6.68;;
48006;SDS011;33771;48.180;11.400;2022-07-10T03:18:19;9.02;;;6.85;;
48006;SDS011;33771;48.180;11.400;2022-07-10T03:20:45;8.50;;;7.05;;
48006;SDS011;33771;48.180;11.400;2022-07-10T03:23:10;8.45;;;7.10;;
48006;SDS011;33771;48.180;11.400;2022-07-10T03:25:36;7.78;;;6.68;;
48006;SDS011;33771;48.180;11.400;2022-07-10T03:28:01;8.23;;;7.03;;
48006;SDS011;33771;48.180;11.400;2022-07-10T03:30:27;8.77;;;6.90;;
48006;SDS011;33771;48.180;11.400;2022-07-10T03:32:53;7.18;;;6.47;;
48006;SDS011;33771;48.180;11.400;2022-07-10T03:35:18;7.90;;;6.88;;
48006;SDS011;33771;48.180;11.400;2022-07-10T03:37:44;7.82;;;7.07;;
48006;SDS011;33771;48.180;11.400;2022-07-10T03:40:09;9.38;;;7.50;;
48006;SDS011;33771;48.180;11.400;2022-07-10T03:42:35;9.65;;;7.75;;
48006;SDS011;33771;48.180;11.400;2022-07-10T03:45:01;8.70;;;7.05;;
48006;SDS011;33771;48.180;11.400;2022-07-10T03:47:26;11.30;;;7.22;;
48006;SDS011;33771;48.180;11.400;2022-07-10T03:49:52;8.82;;;7.63;;
48006;SDS011;33771;48.180;11.400;2022-07-10T03:52:17;8.00;;;7.05;;
48006;SDS011;33771;48.180;11.400;2022-07-10T03:54:43;8.63;;;7.32;;
48006;SDS011;33771;48.180;11.400;2022-07-10T03:57:08;9.65;;;7.60;;
48006;SDS011;33771;48.180;11.400;2022-07-10T03:59:53;10.00;;;7.30;;
48006;SDS011;33771;48.180;11.400;2022-07-10T04:02:18;9.65;;;7.28;;
48006;SDS011;33771;48.180;11.400;2022-07-10T04:04:44;8.75;;;6.78;;
48006;SDS011;33771;48.180;11.400;2022-07-10T04:07:10;7.43;;;6.72;;
48006;SDS011;33771;48.180;11.400;2022-07-10T04:09:37;7.93;;;7.13;;
48006;SDS011;33771;48.180;11.400;2022-07-10T04:12:03;9.43;;;6.90;;
48006;SDS011;33771;48.180;11.400;2022-07-10T04:14:29;8.27;;;6.47;;
48006;SDS011;33771;48.180;11.400;2022-07-10T04:16:54;9.10;;;6.68;;
48006;SDS011;33771;48.180;11.400;2022-07-10T04:19:20;8.05;;;6.55;;
48006;SDS011;33771;48.180;11.400;2022-07-10T04:21:46;11.00;;;6.80;;
48006;SDS011;33771;48.180;11.400;2022-07-10T04:24:12;7.22;;;6.28;;
48006;SDS011;33771;48.180;11.400;2022-07-10T04:26:38;6.90;;;6.15;;
48006;SDS011;33771;48.180;11.400;2022-07-10T04:29:03;9.20;;;6.10;;
48006;SDS011;33771;48.180;11.400;2022-07-10T04:31:29;9.57;;;6.65;;
48006;SDS011;33771;48.180;11.400;2022-07-10T04:33:54;8.82;;;6.10;;
48006;SDS011;33771;48.180;11.400;2022-07-10T04:36:22;5.75;;;5.25;;
48006;SDS011;33771;48.180;11.400;2022-07-10T04:38:48;8.32;;;6.05;;
48006;SDS011;33771;48.180;11.400;2022-07-10T04:41:13;8.27;;;5.90;;
48006;SDS011;33771;48.180;11.400;2022-07-10T04:43:39;7.85;;;5.57;;
48006;SDS011;33771;48.180;11.400;2022-07-10T04:46:05;7.68;;;6.20;;
48006;SDS011;33771;48.180;11.400;2022-07-10T04:48:32;8.95;;;6.20;;
48006;SDS011;33771;48.180;11.400;2022-07-10T04:50:57;8.02;;;6.03;;
48006;SDS011;33771;48.180;11.400;2022-07-10T04:53:23;8.32;;;6.80;;
48006;SDS011;33771;48.180;11.400;2022-07-10T04:55:49;7.13;;;6.38;;
48006;SDS011;33771;48.180;11.400;2022-07-10T04:58:15;9.32;;;6.95;;
48006;SDS011;33771;48.180;11.400;2022-07-10T05:00:40;8.50;;;6.57;;
48006;SDS011;33771;48.180;11.400;2022-07-10T05:03:06;9.00;;;6.85;;
48006;SDS011;33771;48.180;11.400;2022-07-10T05:05:32;9.95;;;7.10;;
48006;SDS011;33771;48.180;11.400;2022-07-10T05:07:57;8.15;;;7.35;;
48006;SDS011;33771;48.180;11.400;2022-07-10T05:10:24;9.05;;;7.30;;
48006;SDS011;33771;48.180;11.400;2022-07-10T05:12:49;9.38;;;7.15;;
48006;SDS011;33771;48.180;11.400;2022-07-10T05:15:15;9.25;;;7.55;;
48006;SDS011;33771;48.180;11.400;2022-07-10T05:17:40;8.90;;;7.90;;
48006;SDS011;33771;48.180;11.400;2022-07-10T05:20:06;9.02;;;7.32;;
48006;SDS011;33771;48.180;11.400;2022-07-10T05:22:32;9.95;;;8.02;;
48006;SDS011;33771;48.180;11.400;2022-07-10T05:24:58;10.10;;;7.75;;
48006;SDS011;33771;48.180;11.400;2022-07-10T05:27:23;8.95;;;8.00;;
48006;SDS011;33771;48.180;11.400;2022-07-10T05:29:49;8.80;;;7.90;;
48006;SDS011;33771;48.180;11.400;2022-07-10T05:32:15;9.90;;;8.70;;
48006;SDS011;33771;48.180;11.400;2022-07-10T05:34:41;10.65;;;7.90;;
48006;SDS011;33771;48.180;11.400;2022-07-10T05:37:06;13.07;;;8.57;;
48006;SDS011;33771;48.180;11.400;2022-07-10T05:39:34;9.07;;;7.97;;
48006;SDS011;33771;48.180;11.400;2022-07-10T05:42:00;12.00;;;8.15;;
48006;SDS011;33771;48.180;11.400;2022-07-10T05:44:25;11.50;;;8.27;;
48006;SDS011;33771;48.180;11.400;2022-07-10T05:46:51;12.55;;;8.90;;
48006;SDS011;33771;48.180;11.400;2022-07-10T05:49:17;8.15;;;7.35;;
48006;SDS011;33771;48.180;11.400;2022-07-10T05:51:42;9.88;;;8.65;;
48006;SDS011;33771;48.180;11.400;2022-07-10T05:54:08;9.15;;;8.13;;
48006;SDS011;33771;48.180;11.400;2022-07-10T05:56:33;9.25;;;8.35;;
48006;SDS011;33771;48.180;11.400;2022-07-10T05:58:59;11.77;;;8.23;;
48006;SDS011;33771;48.180;11.400;2022-07-10T06:01:25;8.60;;;7.43;;
48006;SDS011;33771;48.180;11.400;2022-07-10T06:03:51;8.90;;;7.90;;
48006;SDS011;33771;48.180;11.400;2022-07-10T06:06:16;14.50;;;8.57;;
48006;SDS011;33771;48.180;11.400;2022-07-10T06:08:43;9.38;;;8.38;;
48006;SDS011;33771;48.180;11.400;2022-07-10T06:11:09;11.30;;;8.52;;
48006;SDS011;33771;48.180;11.400;2022-07-10T06:13:35;9.30;;;7.70;;
48006;SDS011;33771;48.180;11.400;2022-07-10T06:16:01;9.52;;;7.63;;
48006;SDS011;33771;48.180;11.400;2022-07-10T06:18:28;10.30;;;8.60;;
48006;SDS011;33771;48.180;11.400;2022-07-10T06:20:54;11.98;;;8.90;;
48006;SDS011;33771;48.180;11.400;2022-07-10T06:23:19;11.02;;;8.75;;
48006;SDS011;33771;48.180;11.400;2022-07-10T06:25:45;13.38;;;9.02;;
48006;SDS011;33771;48.180;11.400;2022-07-10T06:28:11;10.18;;;9.07;;
48006;SDS011;33771;48.180;11.400;2022-07-10T06:30:36;12.13;;;8.90;;
48006;SDS011;33771;48.180;11.400;2022-07-10T06:33:02;10.02;;;8.48;;
48006;SDS011;33771;48.180;11.400;2022-07-10T06:35:27;10.40;;;9.40;;
48006;SDS011;33771;48.180;11.400;2022-07-10T06:37:53;9.35;;;8.43;;
48006;SDS011;33771;48.180;11.400;2022-07-10T06:40:19;9.68;;;8.68;;
48006;SDS011;33771;48.180;11.400;2022-07-10T06:42:45;9.13;;;8.00;;
48006;SDS011;33771;48.180;11.400;2022-07-10T06:45:11;9.63;;;8.60;;
48006;SDS011;33771;48.180;11.400;2022-07-10T06:47:37;9.00;;;7.78;;
48006;SDS011;33771;48.180;11.400;2022-07-10T06:52:48;9.38;;;7.20;;
48006;SDS011;33771;48.180;11.400;2022-07-10T06:55:15;9.18;;;7.07;;
48006;SDS011;33771;48.180;11.400;2022-07-10T06:57:42;7.53;;;6.75;;
48006;SDS011;33771;48.180;11.400;2022-07-10T07:00:08;7.43;;;6.50;;
48006;SDS011;33771;48.180;11.400;2022-07-10T07:02:35;7.47;;;6.72;;
48006;SDS011;33771;48.180;11.400;2022-07-10T07:05:01;7.60;;;6.57;;
48006;SDS011;33771;48.180;11.400;2022-07-10T07:07:26;10.15;;;6.03;;
48006;SDS011;33771;48.180;11.400;2022-07-10T07:09:52;8.73;;;6.45;;
48006;SDS011;33771;48.180;11.400;2022-07-10T07:12:18;11.88;;;6.30;;
48006;SDS011;33771;48.180;11.400;2022-07-10T07:14:44;10.48;;;5.53;;
48006;SDS011;33771;48.180;11.400;2022-07-10T07:17:09;7.80;;;5.88;;
48006;SDS011;33771;48.180;11.400;2022-07-10T07:19:37;8.18;;;6.13;;
48006;SDS011;33771;48.180;11.400;2022-07-10T07:22:22;8.85;;;6.03;;
48006;SDS011;33771;48.180;11.400;2022-07-10T07:25:07;8.10;;;6.00;;
48006;SDS011;33771;48.180;11.400;2022-07-10T07:27:34;8.95;;;5.18;;
48006;SDS011;33771;48.180;11.400;2022-07-10T07:30:08;8.35;;;6.45;;
48006;SDS011;33771;48.180;11.400;2022-07-10T07:32:36;9.23;;;5.28;;
48006;SDS011;33771;48.180;11.400;2022-07-10T07:35:02;11.13;;;5.72;;
48006;SDS011;33771;48.180;11.400;2022-07-10T07:40:02;6.95;;;5.05;;
48006;SDS011;33771;48.180;11.400;2022-07-10T07:42:28;10.20;;;5.07;;
48006;SDS011;33771;48.180;11.400;2022-07-10T07:44:54;8.25;;;5.70;;
48006;SDS011;33771;48.180;11.400;2022-07-10T07:47:19;8.75;;;4.88;;
48006;SDS011;33771;48.180;11.400;2022-07-10T07:49:45;9.50;;;5.10;;
48006;SDS011;33771;48.180;11.400;2022-07-10T07:52:10;11.23;;;5.97;;
48006;SDS011;33771;48.180;11.400;2022-07-10T07:54:36;7.38;;;4.55;;
48006;SDS011;33771;48.180;11.400;2022-07-10T07:57:01;6.57;;;4.70;;
48006;SDS011;33771;48.180;11.400;2022-07-10T07:59:27;5.47;;;3.92;;
48006;SDS011;33771;48.180;11.400;2022-07-10T08:01:53;5.68;;;3.97;;
48006;SDS011;33771;48.180;11.400;2022-07-10T08:04:18;4.68;;;3.55;;
48006;SDS011;33771;48.180;11.400;2022-07-10T08:06:44;6.40;;;3.30;;
48006;SDS011;33771;48.180;11.400;2022-07-10T08:09:10;5.85;;;3.47;;
48006;SDS011;33771;48.180;11.400;2022-07-10T08:11:36;6.88;;;3.58;;
48006;SDS011;33771;48.180;11.400;2022-07-10T08:14:01;12.23;;;3.85;;
48006;SDS011;33771;48.180;11.400;2022-07-10T08:16:27;6.43;;;2.63;;
48006;SDS011;33771;48.180;11.400;2022-07-10T08:18:52;8.02;;;3.00;;
48006;SDS011;33771;48.180;11.400;2022-07-10T08:21:18;7.35;;;2.88;;
48006;SDS011;33771;48.180;11.400;2022-07-10T08:23:43;5.40;;;2.75;;
48006;SDS011;33771;48.180;11.400;2022-07-10T08:26:09;5.57;;;2.55;;
48006;SDS011;33771;48.180;11.400;2022-07-10T08:28:34;5.85;;;2.72;;
48006;SDS011;33771;48.180;11.400;2022-07-10T08:31:00;4.43;;;2.70;;
48006;SDS011;33771;48.180;11.400;2022-07-10T08:33:26;10.30;;;3.30;;
48006;SDS011;33771;48.180;11.400;2022-07-10T08:35:52;7.78;;;2.80;;
48006;SDS011;33771;48.180;11.400;2022-07-10T08:38:18;4.40;;;2.40;;
48006;SDS011;33771;48.180;11.400;2022-07-10T08:40:43;6.25;;;2.70;;
48006;SDS011;33771;48.180;11.400;2022-07-10T08:43:10;5.28;;;2.63;;
48006;SDS011;33771;48.180;11.400;2022-07-10T08:45:36;6.05;;;3.08;;
48006;SDS011;33771;48.180;11.400;2022-07-10T08:48:04;6.53;;;3.03;;
48006;SDS011;33771;48.180;11.400;2022-07-10T08:50:33;5.20;;;2.22;;
48006;SDS011;33771;48.180;11.400;2022-07-10T08:53:09;8.93;;;2.40;;
48006;SDS011;33771;48.180;11.400;2022-07-10T08:55:41;5.38;;;2.30;;
48006;SDS011;33771;48.180;11.400;2022-07-10T08:58:07;3.85;;;2.10;;
48006;SDS011;33771;48.180;11.400;2022-07-10T09:00:35;5.15;;;2.58;;
48006;SDS011;33771;48.180;11.400;2022-07-10T09:03:00;5.22;;;2.20;;
48006;SDS011;33771;48.180;11.400;2022-07-10T09:05:26;5.07;;;2.03;;
48006;SDS011;33771;48.180;11.400;2022-07-10T09:07:52;6.13;;;2.30;;
48006;SDS011;33771;48.180;11.400;2022-07-10T09:10:19;4.38;;;2.10;;
48006;SDS011;33771;48.180;11.400;2022-07-10T09:15:20;5.43;;;2.30;;
48006;SDS011;33771;48.180;11.400;2022-07-10T09:20:26;3.50;;;2.00;;
48006;SDS011;33771;48.180;11.400;2022-07-10T09:23:08;7.55;;;2.22;;
48006;SDS011;33771;48.180;11.400;2022-07-10T09:25:40;4.97;;;2.15;;
48006;SDS011;33771;48.180;11.400;2022-07-10T09:28:05;3.65;;;1.90;;
48006;SDS011;33771;48.180;11.400;2022-07-10T09:30:31;5.28;;;1.80;;
48006;SDS011;33771;48.180;11.400;2022-07-10T09:33:15;3.47;;;1.88;;
48006;SDS011;33771;48.180;11.400;2022-07-10T09:41:14;4.95;;;2.10;;
48006;SDS011;33771;48.180;11.400;2022-07-10T09:43:59;5.13;;;1.90;;
48006;SDS011;33771;48.180;11.400;2022-07-10T09:51:32;4.32;;;1.75;;
48006;SDS011;33771;48.180;11.400;2022-07-10T09:54:09;5.50;;;2.08;;
48006;SDS011;33771;48.180;11.400;2022-07-10T09:59:13;3.17;;;2.00;;
48006;SDS011;33771;48.180;11.400;2022-07-10T10:04:10;5.07;;;1.98;;
48006;SDS011;33771;48.180;11.400;2022-07-10T10:06:37;8.68;;;1.75;;
48006;SDS011;33771;48.180;11.400;2022-07-10T10:12:07;5.32;;;1.50;;
48006;SDS011;33771;48.180;11.400;2022-07-10T10:14:40;3.47;;;1.50;;
48006;SDS011;33771;48.180;11.400;2022-07-10T10:17:06;4.50;;;1.63;;
48006;SDS011;33771;48.180;11.400;2022-07-10T10:19:33;3.50;;;1.40;;
48006;SDS011;33771;48.180;11.400;2022-07-10T10:24:44;7.15;;;1.85;;
48006;SDS011;33771;48.180;11.400;2022-07-10T10:27:11;7.10;;;1.80;;
48006;SDS011;33771;48.180;11.400;2022-07-10T10:29:37;4.63;;;1.50;;
48006;SDS011;33771;48.180;11.400;2022-07-10T10:32:04;4.55;;;1.70;;
48006;SDS011;33771;48.180;11.400;2022-07-10T10:34:41;5.38;;;1.92;;
48006;SDS011;33771;48.180;11.400;2022-07-10T10:39:52;2.70;;;1.50;;
48006;SDS011;33771;48.180;11.400;2022-07-10T10:42:35;4.40;;;1.52;;
48006;SDS011;33771;48.180;11.400;2022-07-10T10:47:57;4.55;;;1.67;;
48006;SDS011;33771;48.180;11.400;2022-07-10T10:53:19;3.97;;;1.90;;
48006;SDS011;33771;48.180;11.400;2022-07-10T10:59:03;3.83;;;1.40;;
48006;SDS011;33771;48.180;11.400;2022-07-10T11:14:26;4.45;;;1.42;;
48006;SDS011;33771;48.180;11.400;2022-07-10T11:16:54;4.45;;;1.40;;
48006;SDS011;33771;48.180;11.400;2022-07-10T11:19:21;3.28;;;1.40;;
48006;SDS011;33771;48.180;11.400;2022-07-10T11:27:47;3.47;;;1.55;;
48006;SDS011;33771;48.180;11.400;2022-07-10T11:30:24;5.60;;;1.30;;
48006;SDS011;33771;48.180;11.400;2022-07-10T11:32:49;4.47;;;1.52;;
48006;SDS011;33771;48.180;11.400;2022-07-10T11:35:15;3.95;;;1.40;;
48006;SDS011;33771;48.180;11.400;2022-07-10T11:37:52;4.75;;;1.45;;
48006;SDS011;33771;48.180;11.400;2022-07-10T11:40:18;3.92;;;1.45;;
48006;SDS011;33771;48.180;11.400;2022-07-10T11:45:20;3.70;;;1.58;;
48006;SDS011;33771;48.180;11.400;2022-07-10T11:47:50;5.93;;;1.50;;
48006;SDS011;33771;48.180;11.400;2022-07-10T11:50:15;3.80;;;1.60;;
48006;SDS011;33771;48.180;11.400;2022-07-10T11:52:41;2.80;;;1.52;;
48006;SDS011;33771;48.180;11.400;2022-07-10T11:55:14;3.20;;;1.52;;
48006;SDS011;33771;48.180;11.400;2022-07-10T11:57:46;6.47;;;1.48;;
48006;SDS011;33771;48.180;11.400;2022-07-10T12:00:25;3.88;;;1.65;;
48006;SDS011;33771;48.180;11.400;2022-07-10T12:02:52;3.08;;;1.40;;
48006;SDS011;33771;48.180;11.400;2022-07-10T12:05:38;4.10;;;1.25;;
48006;SDS011;33771;48.180;11.400;2022-07-10T12:08:04;5.13;;;1.30;;
48006;SDS011;33771;48.180;11.400;2022-07-10T12:10:30;4.53;;;1.52;;
48006;SDS011;33771;48.180;11.400;2022-07-10T12:13:07;6.57;;;1.42;;
48006;SDS011;33771;48.180;11.400;2022-07-10T12:15:40;3.42;;;1.70;;
48006;SDS011;33771;48.180;11.400;2022-07-10T12:18:07;3.20;;;1.42;;
48006;SDS011;33771;48.180;11.400;2022-07-10T12:20:34;4.72;;;1.40;;
48006;SDS011;33771;48.180;11.400;2022-07-10T12:23:02;4.07;;;1.50;;
48006;SDS011;33771;48.180;11.400;2022-07-10T12:25:28;3.63;;;1.33;;
48006;SDS011;33771;48.180;11.400;2022-07-10T12:27:57;7.13;;;1.48;;
48006;SDS011;33771;48.180;11.400;2022-07-10T12:30:24;5.03;;;1.30;;
48006;SDS011;33771;48.180;11.400;2022-07-10T12:33:14;3.28;;;1.50;;
48006;SDS011;33771;48.180;11.400;2022-07-10T12:35:56;4.00;;;1.27;;
48006;SDS011;33771;48.180;11.400;2022-07-10T12:38:23;4.20;;;1.55;;
48006;SDS011;33771;48.180;11.400;2022-07-10T12:40:50;3.85;;;1.20;;
48006;SDS011;33771;48.180;11.400;2022-07-10T12:43:30;5.45;;;1.50;;
48006;SDS011;33771;48.180;11.400;2022-07-10T12:48:37;5.53;;;1.60;;
48006;SDS011;33771;48.180;11.400;2022-07-10T12:51:21;3.00;;;1.52;;
48006;SDS011;33771;48.180;11.400;2022-07-10T12:53:51;4.53;;;1.60;;
48006;SDS011;33771;48.180;11.400;2022-07-10T12:56:33;3.90;;;1.30;;
48006;SDS011;33771;48.180;11.400;2022-07-10T12:59:00;4.68;;;1.55;;
48006;SDS011;33771;48.180;11.400;2022-07-10T13:01:27;4.45;;;1.33;;
48006;SDS011;33771;48.180;11.400;2022-07-10T13:03:58;9.20;;;1.75;;
48006;SDS011;33771;48.180;11.400;2022-07-10T13:06:31;3.90;;;1.33;;
48006;SDS011;33771;48.180;11.400;2022-07-10T13:08:58;3.05;;;1.48;;
48006;SDS011;33771;48.180;11.400;2022-07-10T13:11:24;4.45;;;1.60;;
48006;SDS011;33771;48.180;11.400;2022-07-10T13:13:50;4.60;;;1.38;;
48006;SDS011;33771;48.180;11.400;2022-07-10T13:16:16;2.85;;;1.27;;
48006;SDS011;33771;48.180;11.400;2022-07-10T13:18:42;3.70;;;1.30;;
48006;SDS011;33771;48.180;11.400;2022-07-10T13:21:09;3.38;;;1.30;;
48006;SDS011;33771;48.180;11.400;2022-07-10T13:23:36;2.97;;;1.30;;
48006;SDS011;33771;48.180;11.400;2022-07-10T13:26:02;4.15;;;1.40;;
48006;SDS011;33771;48.180;11.400;2022-07-10T13:28:28;4.93;;;1.35;;
48006;SDS011;33771;48.180;11.400;2022-07-10T13:30:54;4.90;;;1.40;;
48006;SDS011;33771;48.180;11.400;2022-07-10T13:33:20;3.97;;;1.30;;
48006;SDS011;33771;48.180;11.400;2022-07-10T13:35:46;3.30;;;1.30;;
48006;SDS011;33771;48.180;11.400;2022-07-10T13:38:12;5.07;;;1.60;;
48006;SDS011;33771;48.180;11.400;2022-07-10T13:40:38;2.67;;;1.40;;
48006;SDS011;33771;48.180;11.400;2022-07-10T13:43:04;3.88;;;1.23;;
48006;SDS011;33771;48.180;11.400;2022-07-10T13:45:31;3.17;;;1.20;;
48006;SDS011;33771;48.180;11.400;2022-07-10T13:48:07;2.83;;;1.25;;
48006;SDS011;33771;48.180;11.400;2022-07-10T13:50:34;4.93;;;1.40;;
48006;SDS011;33771;48.180;11.400;2022-07-10T13:53:02;4.60;;;1.35;;
48006;SDS011;33771;48.180;11.400;2022-07-10T13:55:27;2.20;;;1.10;;
48006;SDS011;33771;48.180;11.400;2022-07-10T13:57:53;6.03;;;1.42;;
48006;SDS011;33771;48.180;11.400;2022-07-10T14:00:19;2.58;;;1.30;;
48006;SDS011;33771;48.180;11.400;2022-07-10T14:02:44;3.75;;;1.55;;
48006;SDS011;33771;48.180;11.400;2022-07-10T14:05:10;3.55;;;1.33;;
48006;SDS011;33771;48.180;11.400;2022-07-10T14:07:36;2.38;;;1.25;;
48006;SDS011;33771;48.180;11.400;2022-07-10T14:10:02;2.45;;;1.25;;
48006;SDS011;33771;48.180;11.400;2022-07-10T14:12:31;2.00;;;1.10;;
48006;SDS011;33771;48.180;11.400;2022-07-10T14:14:57;4.32;;;1.40;;
48006;SDS011;33771;48.180;11.400;2022-07-10T14:17:23;2.15;;;1.00;;
48006;SDS011;33771;48.180;11.400;2022-07-10T14:19:49;2.28;;;1.10;;
48006;SDS011;33771;48.180;11.400;2022-07-10T14:22:15;4.00;;;1.40;;
48006;SDS011;33771;48.180;11.400;2022-07-10T14:24:41;2.25;;;1.20;;
48006;SDS011;33771;48.180;11.400;2022-07-10T14:27:07;3.58;;;1.20;;
48006;SDS011;33771;48.180;11.400;2022-07-10T14:29:32;3.33;;;1.30;;
48006;SDS011;33771;48.180;11.400;2022-07-10T14:31:58;4.32;;;1.58;;
48006;SDS011;33771;48.180;11.400;2022-07-10T14:34:24;3.95;;;1.17;;
48006;SDS011;33771;48.180;11.400;2022-07-10T14:36:50;3.90;;;1.20;;
48006;SDS011;33771;48.180;11.400;2022-07-10T14:39:16;3.85;;;1.33;;
48006;SDS011;33771;48.180;11.400;2022-07-10T14:41:41;3.58;;;1.38;;
48006;SDS011;33771;48.180;11.400;2022-07-10T14:44:07;3.08;;;1.15;;
48006;SDS011;33771;48.180;11.400;2022-07-10T14:46:33;3.67;;;1.08;;
48006;SDS011;33771;48.180;11.400;2022-07-10T14:48:59;4.18;;;1.30;;
48006;SDS011;33771;48.180;11.400;2022-07-10T14:51:24;3.05;;;1.13;;
48006;SDS011;33771;48.180;11.400;2022-07-10T14:53:50;4.63;;;1.13;;
48006;SDS011;33771;48.180;11.400;2022-07-10T14:56:16;2.78;;;0.95;;
48006;SDS011;33771;48.180;11.400;2022-07-10T14:58:41;3.55;;;1.20;;
48006;SDS011;33771;48.180;11.400;2022-07-10T15:01:08;3.45;;;1.00;;
48006;SDS011;33771;48.180;11.400;2022-07-10T15:03:33;5.25;;;1.20;;
48006;SDS011;33771;48.180;11.400;2022-07-10T15:06:00;3.78;;;1.20;;
48006;SDS011;33771;48.180;11.400;2022-07-10T15:08:26;5.68;;;1.13;;
48006;SDS011;33771;48.180;11.400;2022-07-10T15:10:52;5.30;;;1.30;;
48006;SDS011;33771;48.180;11.400;2022-07-10T15:13:18;4.68;;;1.00;;
48006;SDS011;33771;48.180;11.400;2022-07-10T15:15:44;2.97;;;1.20;;
48006;SDS011;33771;48.180;11.400;2022-07-10T15:18:10;4.05;;;1.20;;
48006;SDS011;33771;48.180;11.400;2022-07-10T15:20:36;3.92;;;1.38;;
48006;SDS011;33771;48.180;11.400;2022-07-10T15:23:02;6.32;;;1.55;;
48006;SDS011;33771;48.180;11.400;2022-07-10T15:25:28;2.72;;;1.20;;
48006;SDS011;33771;48.180;11.400;2022-07-10T15:27:54;1.73;;;0.85;;
48006;SDS011;33771;48.180;11.400;2022-07-10T15:30:20;3.25;;;0.80;;
48006;SDS011;33771;48.180;11.400;2022-07-10T15:32:46;3.38;;;1.20;;
48006;SDS011;33771;48.180;11.400;2022-07-10T15:35:12;1.42;;;0.90;;
48006;SDS011;33771;48.180;11.400;2022-07-10T15:37:38;3.75;;;0.98;;
48006;SDS011;33771;48.180;11.400;2022-07-10T15:40:04;3.33;;;1.17;;